sensor_id;sensor_type;location;lat;lon;timestamp;pressure;altitude;pressure_sealevel;temperature
67599;BMP280;62026;39.230;9.122;2023-06-26T00:00:22;101099.75;;;25.89
67599;BMP280;62026;39.230;9.122;2023-06-26T00:02:49;101104.06;;;25.90
67599;BMP280;62026;39.230;9.122;2023-06-26T00:05:15;101101.22;;;25.95
67599;BMP280;62026;39.230;9.122;2023-06-26T00:07:41;101103.91;;;25.95
67599;BMP280;62026;39.230;9.122;2023-06-26T00:10:07;101101.19;;;25.86
67599;BMP280;62026;39.230;9.122;2023-06-26T00:12:33;101104.78;;;25.82
67599;BMP280;62026;39.230;9.122;2023-06-26T00:15:00;101095.56;;;25.83
67599;BMP280;62026;39.230;9.122;2023-06-26T00:17:26;101099.56;;;25.85
67599;BMP280;62026;39.230;9.122;2023-06-26T00:19:52;101094.97;;;25.86
67599;BMP280;62026;39.230;9.122;2023-06-26T00:22:21;101092.34;;;25.81
67599;BMP280;62026;39.230;9.122;2023-06-26T00:24:47;101088.88;;;25.80
67599;BMP280;62026;39.230;9.122;2023-06-26T00:27:13;101083.47;;;25.80
67599;BMP280;62026;39.230;9.122;2023-06-26T00:29:39;101082.97;;;25.78
67599;BMP280;62026;39.230;9.122;2023-06-26T00:32:06;101077.09;;;25.76
67599;BMP280;62026;39.230;9.122;2023-06-26T00:34:33;101078.16;;;25.75
67599;BMP280;62026;39.230;9.122;2023-06-26T00:36:59;101074.84;;;25.78
67599;BMP280;62026;39.230;9.122;2023-06-26T00:39:26;101067.22;;;25.80
67599;BMP280;62026;39.230;9.122;2023-06-26T00:41:52;101061.81;;;25.80
67599;BMP280;62026;39.230;9.122;2023-06-26T00:44:21;101059.28;;;25.84
67599;BMP280;62026;39.230;9.122;2023-06-26T00:46:48;101052.78;;;25.85
67599;BMP280;62026;39.230;9.122;2023-06-26T00:49:14;101050.44;;;25.92
67599;BMP280;62026;39.230;9.122;2023-06-26T00:51:41;101053.78;;;25.97
67599;BMP280;62026;39.230;9.122;2023-06-26T00:54:07;101060.34;;;26.05
67599;BMP280;62026;39.230;9.122;2023-06-26T00:56:35;101051.94;;;26.07
67599;BMP280;62026;39.230;9.122;2023-06-26T00:59:01;101051.63;;;26.08
67599;BMP280;62026;39.230;9.122;2023-06-26T01:01:27;101049.09;;;26.12
67599;BMP280;62026;39.230;9.122;2023-06-26T01:03:53;101048.28;;;26.11
67599;BMP280;62026;39.230;9.122;2023-06-26T01:06:23;101033.78;;;26.07
67599;BMP280;62026;39.230;9.122;2023-06-26T01:08:50;101035.88;;;26.10
67599;BMP280;62026;39.230;9.122;2023-06-26T01:11:18;101038.94;;;25.86
67599;BMP280;62026;39.230;9.122;2023-06-26T01:13:45;101042.72;;;25.77
67599;BMP280;62026;39.230;9.122;2023-06-26T01:16:12;101044.84;;;25.66
67599;BMP280;62026;39.230;9.122;2023-06-26T01:18:41;101044.25;;;25.69
67599;BMP280;62026;39.230;9.122;2023-06-26T01:21:10;101041.97;;;25.63
67599;BMP280;62026;39.230;9.122;2023-06-26T01:24:04;101041.34;;;25.66
67599;BMP280;62026;39.230;9.122;2023-06-26T01:26:34;101047.69;;;25.61
67599;BMP280;62026;39.230;9.122;2023-06-26T01:29:02;101041.13;;;25.53
67599;BMP280;62026;39.230;9.122;2023-06-26T01:31:30;101042.81;;;25.49
67599;BMP280;62026;39.230;9.122;2023-06-26T01:33:59;101039.63;;;25.47
67599;BMP280;62026;39.230;9.122;2023-06-26T01:36:27;101044.53;;;25.45
67599;BMP280;62026;39.230;9.122;2023-06-26T01:38:53;101051.03;;;25.44
67599;BMP280;62026;39.230;9.122;2023-06-26T01:41:19;101051.66;;;25.41
67599;BMP280;62026;39.230;9.122;2023-06-26T01:47:04;101051.19;;;25.39
67599;BMP280;62026;39.230;9.122;2023-06-26T01:50:00;101050.66;;;25.37
67599;BMP280;62026;39.230;9.122;2023-06-26T01:52:48;101048.09;;;25.32
67599;BMP280;62026;39.230;9.122;2023-06-26T01:55:27;101050.47;;;25.34
67599;BMP280;62026;39.230;9.122;2023-06-26T01:57:56;101047.56;;;25.30
67599;BMP280;62026;39.230;9.122;2023-06-26T02:00:24;101046.13;;;25.24
67599;BMP280;62026;39.230;9.122;2023-06-26T02:02:52;101056.94;;;25.24
67599;BMP280;62026;39.230;9.122;2023-06-26T02:05:18;101051.81;;;25.23
67599;BMP280;62026;39.230;9.122;2023-06-26T02:07:44;101053.72;;;25.22
67599;BMP280;62026;39.230;9.122;2023-06-26T02:10:10;101051.53;;;25.24
67599;BMP280;62026;39.230;9.122;2023-06-26T02:12:38;101046.72;;;25.21
67599;BMP280;62026;39.230;9.122;2023-06-26T02:15:05;101052.91;;;25.22
67599;BMP280;62026;39.230;9.122;2023-06-26T02:17:32;101063.44;;;25.23
67599;BMP280;62026;39.230;9.122;2023-06-26T02:19:58;101055.31;;;25.23
67599;BMP280;62026;39.230;9.122;2023-06-26T02:22:24;101055.63;;;25.22
67599;BMP280;62026;39.230;9.122;2023-06-26T02:24:51;101055.75;;;25.16
67599;BMP280;62026;39.230;9.122;2023-06-26T02:27:17;101071.66;;;25.18
67599;BMP280;62026;39.230;9.122;2023-06-26T02:29:43;101060.47;;;25.11
67599;BMP280;62026;39.230;9.122;2023-06-26T02:32:09;101055.06;;;25.11
67599;BMP280;62026;39.230;9.122;2023-06-26T02:34:35;101067.34;;;25.17
67599;BMP280;62026;39.230;9.122;2023-06-26T02:37:01;101061.56;;;25.10
67599;BMP280;62026;39.230;9.122;2023-06-26T02:39:28;101058.84;;;25.10
67599;BMP280;62026;39.230;9.122;2023-06-26T02:41:54;101055.75;;;25.03
67599;BMP280;62026;39.230;9.122;2023-06-26T02:44:22;101054.19;;;25.02
67599;BMP280;62026;39.230;9.122;2023-06-26T02:46:48;101050.16;;;24.99
67599;BMP280;62026;39.230;9.122;2023-06-26T02:49:15;101053.16;;;24.98
67599;BMP280;62026;39.230;9.122;2023-06-26T02:51:41;101044.56;;;24.96
67599;BMP280;62026;39.230;9.122;2023-06-26T02:54:21;101040.75;;;24.97
67599;BMP280;62026;39.230;9.122;2023-06-26T02:56:50;101041.97;;;24.91
67599;BMP280;62026;39.230;9.122;2023-06-26T02:59:22;101043.56;;;24.92
67599;BMP280;62026;39.230;9.122;2023-06-26T03:01:48;101048.00;;;24.88
67599;BMP280;62026;39.230;9.122;2023-06-26T03:04:14;101040.19;;;24.86
67599;BMP280;62026;39.230;9.122;2023-06-26T03:06:42;101042.19;;;24.81
67599;BMP280;62026;39.230;9.122;2023-06-26T03:09:07;101040.59;;;24.80
67599;BMP280;62026;39.230;9.122;2023-06-26T03:11:33;101041.19;;;24.76
67599;BMP280;62026;39.230;9.122;2023-06-26T03:13:59;101040.69;;;24.74
67599;BMP280;62026;39.230;9.122;2023-06-26T03:16:26;101041.78;;;24.73
67599;BMP280;62026;39.230;9.122;2023-06-26T03:18:52;101037.28;;;24.69
67599;BMP280;62026;39.230;9.122;2023-06-26T03:21:18;101038.13;;;24.69
67599;BMP280;62026;39.230;9.122;2023-06-26T03:23:44;101035.88;;;24.71
67599;BMP280;62026;39.230;9.122;2023-06-26T03:26:11;101034.31;;;24.70
67599;BMP280;62026;39.230;9.122;2023-06-26T03:28:37;101025.88;;;24.72
67599;BMP280;62026;39.230;9.122;2023-06-26T03:31:03;101034.00;;;24.72
67599;BMP280;62026;39.230;9.122;2023-06-26T03:33:30;101019.19;;;24.69
67599;BMP280;62026;39.230;9.122;2023-06-26T03:35:57;101023.09;;;24.63
67599;BMP280;62026;39.230;9.122;2023-06-26T03:38:23;101021.09;;;24.55
67599;BMP280;62026;39.230;9.122;2023-06-26T03:40:52;101018.41;;;24.55
67599;BMP280;62026;39.230;9.122;2023-06-26T03:43:21;101025.69;;;24.55
67599;BMP280;62026;39.230;9.122;2023-06-26T03:46:00;101027.78;;;24.58
67599;BMP280;62026;39.230;9.122;2023-06-26T03:48:26;101019.00;;;24.52
67599;BMP280;62026;39.230;9.122;2023-06-26T03:50:55;101017.91;;;24.53
67599;BMP280;62026;39.230;9.122;2023-06-26T03:53:21;101023.41;;;24.48
67599;BMP280;62026;39.230;9.122;2023-06-26T03:55:47;101030.41;;;24.49
67599;BMP280;62026;39.230;9.122;2023-06-26T03:58:13;101019.38;;;24.46
67599;BMP280;62026;39.230;9.122;2023-06-26T04:00:39;101020.00;;;24.43
67599;BMP280;62026;39.230;9.122;2023-06-26T04:03:06;101017.19;;;24.48
67599;BMP280;62026;39.230;9.122;2023-06-26T04:05:32;101017.19;;;24.48
67599;BMP280;62026;39.230;9.122;2023-06-26T04:07:58;101018.00;;;24.48
67599;BMP280;62026;39.230;9.122;2023-06-26T04:10:25;101021.50;;;24.49
67599;BMP280;62026;39.230;9.122;2023-06-26T04:12:51;101022.78;;;24.51
67599;BMP280;62026;39.230;9.122;2023-06-26T04:15:17;101026.59;;;24.50
67599;BMP280;62026;39.230;9.122;2023-06-26T04:17:43;101030.09;;;24.51
67599;BMP280;62026;39.230;9.122;2023-06-26T04:20:09;101029.78;;;24.52
67599;BMP280;62026;39.230;9.122;2023-06-26T04:22:35;101029.00;;;24.52
67599;BMP280;62026;39.230;9.122;2023-06-26T04:25:05;101025.41;;;24.56
67599;BMP280;62026;39.230;9.122;2023-06-26T04:27:31;101024.91;;;24.54
67599;BMP280;62026;39.230;9.122;2023-06-26T04:29:57;101033.59;;;24.51
67599;BMP280;62026;39.230;9.122;2023-06-26T04:32:23;101028.19;;;24.51
67599;BMP280;62026;39.230;9.122;2023-06-26T04:34:49;101026.09;;;24.48
67599;BMP280;62026;39.230;9.122;2023-06-26T04:37:15;101024.41;;;24.52
67599;BMP280;62026;39.230;9.122;2023-06-26T04:39:43;101027.09;;;24.52
67599;BMP280;62026;39.230;9.122;2023-06-26T04:42:09;101022.50;;;24.53
67599;BMP280;62026;39.230;9.122;2023-06-26T04:44:38;101025.19;;;24.53
67599;BMP280;62026;39.230;9.122;2023-06-26T04:47:04;101026.41;;;24.60
67599;BMP280;62026;39.230;9.122;2023-06-26T04:49:30;101034.56;;;24.69
67599;BMP280;62026;39.230;9.122;2023-06-26T04:51:56;101035.78;;;24.76
67599;BMP280;62026;39.230;9.122;2023-06-26T04:54:26;101040.47;;;24.85
67599;BMP280;62026;39.230;9.122;2023-06-26T04:56:53;101052.66;;;24.96
67599;BMP280;62026;39.230;9.122;2023-06-26T04:59:19;101051.56;;;24.97
67599;BMP280;62026;39.230;9.122;2023-06-26T05:01:45;101050.94;;;25.00
67599;BMP280;62026;39.230;9.122;2023-06-26T05:04:15;101048.25;;;25.00
67599;BMP280;62026;39.230;9.122;2023-06-26T05:06:41;101054.03;;;25.07
67599;BMP280;62026;39.230;9.122;2023-06-26T05:09:07;101053.94;;;25.12
67599;BMP280;62026;39.230;9.122;2023-06-26T05:11:33;101051.31;;;25.21
67599;BMP280;62026;39.230;9.122;2023-06-26T05:13:59;101055.50;;;25.27
67599;BMP280;62026;39.230;9.122;2023-06-26T05:16:25;101052.88;;;25.35
67599;BMP280;62026;39.230;9.122;2023-06-26T05:18:51;101057.06;;;25.41
67599;BMP280;62026;39.230;9.122;2023-06-26T05:21:18;101058.56;;;25.47
67599;BMP280;62026;39.230;9.122;2023-06-26T05:23:46;101065.72;;;25.52
67599;BMP280;62026;39.230;9.122;2023-06-26T05:26:13;101061.63;;;25.54
67599;BMP280;62026;39.230;9.122;2023-06-26T05:28:39;101065.00;;;25.60
67599;BMP280;62026;39.230;9.122;2023-06-26T05:31:06;101063.44;;;25.68
67599;BMP280;62026;39.230;9.122;2023-06-26T05:33:35;101062.72;;;25.76
67599;BMP280;62026;39.230;9.122;2023-06-26T05:36:04;101064.53;;;25.80
67599;BMP280;62026;39.230;9.122;2023-06-26T05:38:32;101059.63;;;25.91
67599;BMP280;62026;39.230;9.122;2023-06-26T05:40:58;101060.00;;;25.98
67599;BMP280;62026;39.230;9.122;2023-06-26T05:43:24;101065.75;;;26.05
67599;BMP280;62026;39.230;9.122;2023-06-26T05:45:50;101066.13;;;26.12
67599;BMP280;62026;39.230;9.122;2023-06-26T05:48:16;101070.75;;;26.12
67599;BMP280;62026;39.230;9.122;2023-06-26T05:50:43;101066.50;;;26.19
67599;BMP280;62026;39.230;9.122;2023-06-26T05:53:11;101065.53;;;26.24
67599;BMP280;62026;39.230;9.122;2023-06-26T05:55:37;101073.84;;;26.27
67599;BMP280;62026;39.230;9.122;2023-06-26T05:58:04;101071.97;;;26.36
67599;BMP280;62026;39.230;9.122;2023-06-26T06:00:31;101077.72;;;26.44
67599;BMP280;62026;39.230;9.122;2023-06-26T06:02:57;101077.75;;;26.52
67599;BMP280;62026;39.230;9.122;2023-06-26T06:05:23;101079.41;;;26.62
67599;BMP280;62026;39.230;9.122;2023-06-26T06:07:52;101076.88;;;26.74
67599;BMP280;62026;39.230;9.122;2023-06-26T06:10:18;101081.84;;;26.89
67599;BMP280;62026;39.230;9.122;2023-06-26T06:12:44;101082.53;;;26.95
67599;BMP280;62026;39.230;9.122;2023-06-26T06:15:10;101087.59;;;26.96
67599;BMP280;62026;39.230;9.122;2023-06-26T06:17:36;101083.47;;;26.99
67599;BMP280;62026;39.230;9.122;2023-06-26T06:20:03;101089.22;;;27.14
67599;BMP280;62026;39.230;9.122;2023-06-26T06:22:30;101090.38;;;27.13
67599;BMP280;62026;39.230;9.122;2023-06-26T06:24:56;101084.75;;;27.01
67599;BMP280;62026;39.230;9.122;2023-06-26T06:27:22;101084.28;;;27.08
67599;BMP280;62026;39.230;9.122;2023-06-26T06:29:48;101090.03;;;27.15
67599;BMP280;62026;39.230;9.122;2023-06-26T06:32:14;101091.31;;;27.35
67599;BMP280;62026;39.230;9.122;2023-06-26T06:34:40;101089.41;;;27.61
67599;BMP280;62026;39.230;9.122;2023-06-26T06:37:06;101092.22;;;27.73
67599;BMP280;62026;39.230;9.122;2023-06-26T06:39:32;101091.44;;;27.55
67599;BMP280;62026;39.230;9.122;2023-06-26T06:41:58;101086.53;;;27.32
67599;BMP280;62026;39.230;9.122;2023-06-26T06:44:24;101096.09;;;27.38
67599;BMP280;62026;39.230;9.122;2023-06-26T06:46:50;101091.63;;;27.33
67599;BMP280;62026;39.230;9.122;2023-06-26T06:49:16;101094.50;;;27.37
67599;BMP280;62026;39.230;9.122;2023-06-26T06:51:42;101088.91;;;27.42
67599;BMP280;62026;39.230;9.122;2023-06-26T06:54:08;101089.38;;;27.44
67599;BMP280;62026;39.230;9.122;2023-06-26T06:56:34;101088.59;;;27.52
67599;BMP280;62026;39.230;9.122;2023-06-26T06:59:00;101080.28;;;27.57
67599;BMP280;62026;39.230;9.122;2023-06-26T07:01:26;101086.81;;;27.56
67599;BMP280;62026;39.230;9.122;2023-06-26T07:03:52;101088.13;;;27.67
67599;BMP280;62026;39.230;9.122;2023-06-26T07:06:19;101079.16;;;27.75
67599;BMP280;62026;39.230;9.122;2023-06-26T07:08:45;101079.78;;;27.72
67599;BMP280;62026;39.230;9.122;2023-06-26T07:11:11;101077.09;;;27.63
67599;BMP280;62026;39.230;9.122;2023-06-26T07:13:37;101077.03;;;27.81
67599;BMP280;62026;39.230;9.122;2023-06-26T07:16:03;101073.00;;;27.95
67599;BMP280;62026;39.230;9.122;2023-06-26T07:18:29;101078.59;;;27.99
67599;BMP280;62026;39.230;9.122;2023-06-26T07:20:55;101077.06;;;28.19
67599;BMP280;62026;39.230;9.122;2023-06-26T07:23:21;101072.63;;;28.14
67599;BMP280;62026;39.230;9.122;2023-06-26T07:25:47;101070.34;;;28.25
67599;BMP280;62026;39.230;9.122;2023-06-26T07:28:14;101070.34;;;28.25
67599;BMP280;62026;39.230;9.122;2023-06-26T07:30:40;101070.09;;;28.47
67599;BMP280;62026;39.230;9.122;2023-06-26T07:33:06;101071.41;;;28.41
67599;BMP280;62026;39.230;9.122;2023-06-26T07:35:33;101077.50;;;28.38
67599;BMP280;62026;39.230;9.122;2023-06-26T07:37:58;101080.53;;;28.36
67599;BMP280;62026;39.230;9.122;2023-06-26T07:40:26;101081.19;;;28.83
67599;BMP280;62026;39.230;9.122;2023-06-26T07:42:52;101076.50;;;29.46
67599;BMP280;62026;39.230;9.122;2023-06-26T07:45:19;101073.28;;;29.65
67599;BMP280;62026;39.230;9.122;2023-06-26T07:47:46;101079.97;;;29.79
67599;BMP280;62026;39.230;9.122;2023-06-26T07:50:12;101082.50;;;29.84
67599;BMP280;62026;39.230;9.122;2023-06-26T07:52:38;101068.78;;;29.93
67599;BMP280;62026;39.230;9.122;2023-06-26T07:55:04;101064.13;;;29.94
67599;BMP280;62026;39.230;9.122;2023-06-26T07:57:31;101070.94;;;30.12
67599;BMP280;62026;39.230;9.122;2023-06-26T07:59:57;101071.84;;;30.16
67599;BMP280;62026;39.230;9.122;2023-06-26T08:02:23;101080.16;;;30.19
67599;BMP280;62026;39.230;9.122;2023-06-26T08:04:50;101069.13;;;30.28
67599;BMP280;62026;39.230;9.122;2023-06-26T08:07:16;101074.22;;;30.29
67599;BMP280;62026;39.230;9.122;2023-06-26T08:09:42;101067.97;;;30.41
67599;BMP280;62026;39.230;9.122;2023-06-26T08:12:08;101069.09;;;30.52
67599;BMP280;62026;39.230;9.122;2023-06-26T08:14:34;101056.69;;;30.55
67599;BMP280;62026;39.230;9.122;2023-06-26T08:17:00;101061.84;;;30.56
67599;BMP280;62026;39.230;9.122;2023-06-26T08:19:26;101062.06;;;29.78
67599;BMP280;62026;39.230;9.122;2023-06-26T08:21:52;101065.88;;;29.53
67599;BMP280;62026;39.230;9.122;2023-06-26T08:24:18;101062.75;;;30.24
67599;BMP280;62026;39.230;9.122;2023-06-26T08:26:48;101064.31;;;30.49
67599;BMP280;62026;39.230;9.122;2023-06-26T08:29:14;101055.47;;;30.40
67599;BMP280;62026;39.230;9.122;2023-06-26T08:31:42;101058.47;;;30.63
67599;BMP280;62026;39.230;9.122;2023-06-26T08:34:08;101058.75;;;30.86
67599;BMP280;62026;39.230;9.122;2023-06-26T08:36:35;101068.06;;;30.97
67599;BMP280;62026;39.230;9.122;2023-06-26T08:39:01;101050.16;;;31.27
67599;BMP280;62026;39.230;9.122;2023-06-26T08:41:27;101057.94;;;31.41
67599;BMP280;62026;39.230;9.122;2023-06-26T08:43:53;101056.69;;;31.38
67599;BMP280;62026;39.230;9.122;2023-06-26T08:46:20;101055.72;;;31.46
67599;BMP280;62026;39.230;9.122;2023-06-26T08:48:55;101052.31;;;31.49
67599;BMP280;62026;39.230;9.122;2023-06-26T08:51:25;101060.22;;;31.54
67599;BMP280;62026;39.230;9.122;2023-06-26T08:54:01;101064.66;;;31.75
67599;BMP280;62026;39.230;9.122;2023-06-26T08:56:35;101061.22;;;31.78
67599;BMP280;62026;39.230;9.122;2023-06-26T08:59:02;101059.88;;;32.03
67599;BMP280;62026;39.230;9.122;2023-06-26T09:01:28;101063.06;;;32.40
67599;BMP280;62026;39.230;9.122;2023-06-26T09:03:55;101058.22;;;32.33
67599;BMP280;62026;39.230;9.122;2023-06-26T09:06:21;101063.13;;;32.24
67599;BMP280;62026;39.230;9.122;2023-06-26T09:08:47;101059.84;;;32.38
67599;BMP280;62026;39.230;9.122;2023-06-26T09:11:13;101059.22;;;32.44
67599;BMP280;62026;39.230;9.122;2023-06-26T09:13:40;101052.28;;;32.12
67599;BMP280;62026;39.230;9.122;2023-06-26T09:16:07;101046.00;;;32.46
67599;BMP280;62026;39.230;9.122;2023-06-26T09:18:34;101030.59;;;32.57
67599;BMP280;62026;39.230;9.122;2023-06-26T09:21:06;101053.22;;;32.54
67599;BMP280;62026;39.230;9.122;2023-06-26T09:23:34;101052.44;;;32.96
67599;BMP280;62026;39.230;9.122;2023-06-26T09:26:07;101048.47;;;32.71
67599;BMP280;62026;39.230;9.122;2023-06-26T09:28:35;101046.91;;;32.54
67599;BMP280;62026;39.230;9.122;2023-06-26T09:31:03;101044.03;;;32.28
67599;BMP280;62026;39.230;9.122;2023-06-26T09:33:37;101051.34;;;32.39
67599;BMP280;62026;39.230;9.122;2023-06-26T09:36:07;101045.84;;;32.78
67599;BMP280;62026;39.230;9.122;2023-06-26T09:38:36;101048.88;;;32.73
67599;BMP280;62026;39.230;9.122;2023-06-26T09:41:03;101035.19;;;32.73
67599;BMP280;62026;39.230;9.122;2023-06-26T09:43:29;101035.06;;;32.66
67599;BMP280;62026;39.230;9.122;2023-06-26T09:45:56;101042.81;;;32.44
67599;BMP280;62026;39.230;9.122;2023-06-26T09:48:22;101033.84;;;32.63
67599;BMP280;62026;39.230;9.122;2023-06-26T09:50:48;101031.44;;;32.62
67599;BMP280;62026;39.230;9.122;2023-06-26T09:53:15;101029.06;;;32.60
67599;BMP280;62026;39.230;9.122;2023-06-26T09:55:41;101025.72;;;32.47
67599;BMP280;62026;39.230;9.122;2023-06-26T09:58:11;101034.59;;;32.25
67599;BMP280;62026;39.230;9.122;2023-06-26T10:00:41;101030.78;;;32.30
67599;BMP280;62026;39.230;9.122;2023-06-26T10:03:10;101026.69;;;32.20
67599;BMP280;62026;39.230;9.122;2023-06-26T10:05:36;101022.13;;;32.24
67599;BMP280;62026;39.230;9.122;2023-06-26T10:08:05;101018.34;;;32.51
67599;BMP280;62026;39.230;9.122;2023-06-26T10:10:37;101032.63;;;32.41
67599;BMP280;62026;39.230;9.122;2023-06-26T10:13:22;101019.22;;;32.36
67599;BMP280;62026;39.230;9.122;2023-06-26T10:15:50;101027.00;;;32.34
67599;BMP280;62026;39.230;9.122;2023-06-26T10:18:18;101021.81;;;32.48
67599;BMP280;62026;39.230;9.122;2023-06-26T10:20:48;101026.09;;;32.30
67599;BMP280;62026;39.230;9.122;2023-06-26T10:23:19;101017.63;;;32.35
67599;BMP280;62026;39.230;9.122;2023-06-26T10:25:51;101011.53;;;32.42
67599;BMP280;62026;39.230;9.122;2023-06-26T10:28:21;101013.19;;;32.46
67599;BMP280;62026;39.230;9.122;2023-06-26T10:30:51;101019.16;;;32.33
67599;BMP280;62026;39.230;9.122;2023-06-26T10:33:20;101020.50;;;32.23
67599;BMP280;62026;39.230;9.122;2023-06-26T10:35:46;101009.34;;;32.51
67599;BMP280;62026;39.230;9.122;2023-06-26T10:38:12;101010.44;;;32.27
67599;BMP280;62026;39.230;9.122;2023-06-26T10:40:46;101012.41;;;32.11
67599;BMP280;62026;39.230;9.122;2023-06-26T10:43:15;101007.66;;;32.24
67599;BMP280;62026;39.230;9.122;2023-06-26T10:45:54;101007.66;;;32.08
67599;BMP280;62026;39.230;9.122;2023-06-26T10:48:22;101015.88;;;32.08
67599;BMP280;62026;39.230;9.122;2023-06-26T10:50:49;101005.22;;;32.03
67599;BMP280;62026;39.230;9.122;2023-06-26T10:58:43;100984.00;;;32.16
67599;BMP280;62026;39.230;9.122;2023-06-26T11:03:44;100996.75;;;32.08
67599;BMP280;62026;39.230;9.122;2023-06-26T11:06:18;100989.09;;;31.98
67599;BMP280;62026;39.230;9.122;2023-06-26T11:08:53;100992.50;;;32.30
67599;BMP280;62026;39.230;9.122;2023-06-26T11:11:21;100984.53;;;32.40
67599;BMP280;62026;39.230;9.122;2023-06-26T11:13:48;100982.25;;;32.42
67599;BMP280;62026;39.230;9.122;2023-06-26T11:16:15;100991.03;;;32.32
67599;BMP280;62026;39.230;9.122;2023-06-26T11:18:42;100983.72;;;32.59
67599;BMP280;62026;39.230;9.122;2023-06-26T11:21:09;100986.13;;;32.41
67599;BMP280;62026;39.230;9.122;2023-06-26T11:23:39;100983.38;;;32.41
67599;BMP280;62026;39.230;9.122;2023-06-26T11:26:38;100982.34;;;31.92
67599;BMP280;62026;39.230;9.122;2023-06-26T11:29:04;100975.38;;;32.52
67599;BMP280;62026;39.230;9.122;2023-06-26T11:31:38;100976.63;;;32.16
67599;BMP280;62026;39.230;9.122;2023-06-26T11:34:07;100977.81;;;31.99
67599;BMP280;62026;39.230;9.122;2023-06-26T11:36:34;100983.28;;;31.99
67599;BMP280;62026;39.230;9.122;2023-06-26T11:39:05;100985.75;;;32.04
67599;BMP280;62026;39.230;9.122;2023-06-26T11:41:36;100979.47;;;32.04
67599;BMP280;62026;39.230;9.122;2023-06-26T11:44:04;100979.78;;;32.37
67599;BMP280;62026;39.230;9.122;2023-06-26T11:46:32;100973.75;;;32.28
67599;BMP280;62026;39.230;9.122;2023-06-26T11:48:59;100977.28;;;32.29
67599;BMP280;62026;39.230;9.122;2023-06-26T11:51:29;100975.38;;;31.94
67599;BMP280;62026;39.230;9.122;2023-06-26T11:53:55;100971.88;;;32.13
67599;BMP280;62026;39.230;9.122;2023-06-26T11:56:21;100971.00;;;32.09
67599;BMP280;62026;39.230;9.122;2023-06-26T11:59:06;100972.41;;;32.03
67599;BMP280;62026;39.230;9.122;2023-06-26T12:01:37;100969.06;;;32.29
67599;BMP280;62026;39.230;9.122;2023-06-26T12:04:06;100958.25;;;31.97
67599;BMP280;62026;39.230;9.122;2023-06-26T12:06:42;100957.94;;;32.18
67599;BMP280;62026;39.230;9.122;2023-06-26T12:09:11;100956.53;;;32.08
67599;BMP280;62026;39.230;9.122;2023-06-26T12:11:39;100958.75;;;32.22
67599;BMP280;62026;39.230;9.122;2023-06-26T12:14:07;100953.28;;;32.22
67599;BMP280;62026;39.230;9.122;2023-06-26T12:16:35;100954.53;;;32.25
67599;BMP280;62026;39.230;9.122;2023-06-26T12:19:06;100959.47;;;32.19
67599;BMP280;62026;39.230;9.122;2023-06-26T12:24:17;100949.13;;;32.28
67599;BMP280;62026;39.230;9.122;2023-06-26T12:26:54;100957.13;;;32.18
67599;BMP280;62026;39.230;9.122;2023-06-26T12:29:32;100955.03;;;32.11
67599;BMP280;62026;39.230;9.122;2023-06-26T12:31:59;100951.81;;;32.25
67599;BMP280;62026;39.230;9.122;2023-06-26T12:34:32;100950.88;;;32.36
67599;BMP280;62026;39.230;9.122;2023-06-26T12:37:04;100945.41;;;32.55
67599;BMP280;62026;39.230;9.122;2023-06-26T12:39:55;100952.75;;;32.13
67599;BMP280;62026;39.230;9.122;2023-06-26T12:42:24;100946.41;;;32.09
67599;BMP280;62026;39.230;9.122;2023-06-26T12:44:52;100955.28;;;32.06
67599;BMP280;62026;39.230;9.122;2023-06-26T12:47:24;100944.81;;;32.08
67599;BMP280;62026;39.230;9.122;2023-06-26T12:49:52;100943.53;;;32.21
67599;BMP280;62026;39.230;9.122;2023-06-26T12:52:19;100944.38;;;32.06
67599;BMP280;62026;39.230;9.122;2023-06-26T12:54:46;100944.38;;;32.06
67599;BMP280;62026;39.230;9.122;2023-06-26T12:57:13;100931.44;;;32.03
67599;BMP280;62026;39.230;9.122;2023-06-26T12:59:43;100931.00;;;32.20
67599;BMP280;62026;39.230;9.122;2023-06-26T13:02:09;100932.09;;;32.16
67599;BMP280;62026;39.230;9.122;2023-06-26T13:04:39;100935.34;;;32.21
67599;BMP280;62026;39.230;9.122;2023-06-26T13:07:07;100935.56;;;32.74
67599;BMP280;62026;39.230;9.122;2023-06-26T13:09:34;100930.88;;;32.13
67599;BMP280;62026;39.230;9.122;2023-06-26T13:12:02;100935.06;;;32.26
67599;BMP280;62026;39.230;9.122;2023-06-26T13:14:30;100928.41;;;32.27
67599;BMP280;62026;39.230;9.122;2023-06-26T13:16:56;100935.25;;;32.18
67599;BMP280;62026;39.230;9.122;2023-06-26T13:19:22;100932.75;;;32.28
67599;BMP280;62026;39.230;9.122;2023-06-26T13:21:48;100923.84;;;32.31
67599;BMP280;62026;39.230;9.122;2023-06-26T13:24:14;100927.47;;;32.20
67599;BMP280;62026;39.230;9.122;2023-06-26T13:26:41;100929.00;;;32.55
67599;BMP280;62026;39.230;9.122;2023-06-26T13:29:07;100928.13;;;32.13
67599;BMP280;62026;39.230;9.122;2023-06-26T13:31:33;100911.75;;;32.13
67599;BMP280;62026;39.230;9.122;2023-06-26T13:34:02;100919.28;;;32.20
67599;BMP280;62026;39.230;9.122;2023-06-26T13:36:29;100918.25;;;32.24
67599;BMP280;62026;39.230;9.122;2023-06-26T13:38:55;100920.00;;;32.36
67599;BMP280;62026;39.230;9.122;2023-06-26T13:41:23;100909.28;;;32.46
67599;BMP280;62026;39.230;9.122;2023-06-26T13:43:49;100918.63;;;32.07
67599;BMP280;62026;39.230;9.122;2023-06-26T13:46:16;100909.56;;;32.22
67599;BMP280;62026;39.230;9.122;2023-06-26T13:48:44;100907.81;;;32.52
67599;BMP280;62026;39.230;9.122;2023-06-26T13:51:10;100903.81;;;32.46
67599;BMP280;62026;39.230;9.122;2023-06-26T13:53:36;100899.78;;;32.40
67599;BMP280;62026;39.230;9.122;2023-06-26T13:56:02;100900.63;;;32.44
67599;BMP280;62026;39.230;9.122;2023-06-26T13:58:28;100904.09;;;32.41
67599;BMP280;62026;39.230;9.122;2023-06-26T14:00:58;100914.00;;;32.30
67599;BMP280;62026;39.230;9.122;2023-06-26T14:03:27;100907.50;;;32.35
67599;BMP280;62026;39.230;9.122;2023-06-26T14:05:54;100909.72;;;32.29
67599;BMP280;62026;39.230;9.122;2023-06-26T14:08:20;100916.72;;;32.27
67599;BMP280;62026;39.230;9.122;2023-06-26T14:10:46;100905.81;;;32.30
67599;BMP280;62026;39.230;9.122;2023-06-26T14:13:12;100896.50;;;32.31